createdAt,value
2018-08-10T00:00:31.026Z,1002.57
2018-08-10T00:01:31.017Z,1002.59
2018-08-10T00:02:31.008Z,1002.57
2018-08-10T00:03:31.002Z,1002.66
2018-08-10T00:04:31.000Z,1002.57
2018-08-10T00:05:30.989Z,1002.57
2018-08-10T00:06:30.983Z,1002.59
2018-08-10T00:07:30.975Z,1002.63
2018-08-10T00:08:30.970Z,1002.66
2018-08-10T00:09:30.963Z,1002.66
2018-08-10T00:10:30.957Z,1002.69
2018-08-10T00:11:30.950Z,1002.71
2018-08-10T00:12:30.944Z,1002.72
2018-08-10T00:13:30.937Z,1002.69
2018-08-10T00:14:30.931Z,1002.78
2018-08-10T00:15:30.924Z,1002.88
2018-08-10T00:16:30.917Z,1002.95
2018-08-10T00:17:30.911Z,1002.93
2018-08-10T00:18:30.904Z,1002.90
2018-08-10T00:19:30.897Z,1003.00
2018-08-10T00:20:30.891Z,1003.00
2018-08-10T00:21:30.884Z,1002.99
2018-08-10T00:22:30.878Z,1002.97
2018-08-10T00:23:30.871Z,1002.99
2018-08-10T00:24:30.864Z,1002.98
2018-08-10T00:25:30.857Z,1003.04
2018-08-10T00:26:30.851Z,1003.07
2018-08-10T00:27:30.843Z,1003.14
2018-08-10T00:28:30.837Z,1003.16
2018-08-10T00:29:30.830Z,1003.13
2018-08-10T00:30:30.824Z,1003.15
2018-08-10T00:31:30.817Z,1003.18
2018-08-10T00:32:30.809Z,1003.16
2018-08-10T00:33:30.803Z,1003.14
2018-08-10T00:34:30.796Z,1003.19
2018-08-10T00:35:30.789Z,1003.19
2018-08-10T00:36:30.783Z,1003.21
2018-08-10T00:37:30.776Z,1003.15
2018-08-10T00:38:30.769Z,1003.12
2018-08-10T00:39:30.762Z,1003.20
2018-08-10T00:40:30.757Z,1003.18
2018-08-10T00:41:30.749Z,1003.17
2018-08-10T00:42:30.742Z,1003.21
2018-08-10T00:43:30.735Z,1003.26
2018-08-10T00:44:30.727Z,1003.24
2018-08-10T00:45:30.721Z,1003.24
2018-08-10T00:46:30.714Z,1003.20
2018-08-10T00:47:30.713Z,1003.24
2018-08-10T00:48:30.703Z,1003.26
2018-08-10T00:49:30.693Z,1003.20
2018-08-10T00:50:30.686Z,1003.21
2018-08-10T00:51:30.681Z,1003.26
2018-08-10T00:52:30.676Z,1003.27
2018-08-10T00:53:30.666Z,1003.31
2018-08-10T00:54:30.659Z,1003.26
2018-08-10T00:55:30.651Z,1003.37
2018-08-10T00:56:30.644Z,1003.38
2018-08-10T00:57:30.637Z,1003.37
2018-08-10T00:58:30.631Z,1003.40
2018-08-10T00:59:30.623Z,1003.39
2018-08-10T01:00:30.616Z,1003.45
2018-08-10T01:01:30.610Z,1003.47
2018-08-10T01:02:30.603Z,1003.42
2018-08-10T01:03:30.595Z,1003.51
2018-08-10T01:04:30.589Z,1003.43
2018-08-10T01:05:30.582Z,1003.51
2018-08-10T01:06:30.575Z,1003.57
2018-08-10T01:07:30.571Z,1003.62
2018-08-10T01:08:30.564Z,1003.53
2018-08-10T01:09:30.557Z,1003.62
2018-08-10T01:10:30.548Z,1003.58
2018-08-10T01:11:30.540Z,1003.59
2018-08-10T01:12:30.532Z,1003.58
2018-08-10T01:13:30.625Z,1003.66
2018-08-10T01:14:30.520Z,1003.67
2018-08-10T01:15:30.513Z,1003.66
2018-08-10T01:16:30.505Z,1003.64
2018-08-10T01:17:30.498Z,1003.65
2018-08-10T01:18:30.492Z,1003.70
2018-08-10T01:19:30.643Z,1003.65
2018-08-10T01:20:30.477Z,1003.80
2018-08-10T01:21:30.470Z,1003.76
2018-08-10T01:22:30.464Z,1003.73
2018-08-10T01:23:30.455Z,1003.70
2018-08-10T01:24:30.449Z,1003.75
2018-08-10T01:25:30.442Z,1003.73
2018-08-10T01:26:30.436Z,1003.75
2018-08-10T01:27:30.428Z,1003.78
2018-08-10T01:28:30.491Z,1003.80
2018-08-10T01:29:30.415Z,1003.77
2018-08-10T01:30:30.409Z,1003.78
2018-08-10T01:31:30.400Z,1003.78
2018-08-10T01:32:30.393Z,1003.79
2018-08-10T01:33:30.386Z,1003.73
2018-08-10T01:34:30.380Z,1003.78
2018-08-10T01:35:30.374Z,1003.81
2018-08-10T01:36:30.371Z,1003.82
2018-08-10T01:37:30.358Z,1003.78
2018-08-10T01:38:30.352Z,1003.83
2018-08-10T01:39:30.346Z,1003.86
2018-08-10T01:40:30.338Z,1003.85
2018-08-10T01:41:30.331Z,1003.86
2018-08-10T01:42:30.324Z,1003.82
2018-08-10T01:43:30.317Z,1003.86
2018-08-10T01:44:30.310Z,1003.87
2018-08-10T01:45:30.303Z,1003.88
2018-08-10T01:46:30.296Z,1003.89
2018-08-10T01:47:30.289Z,1003.92
2018-08-10T01:48:30.282Z,1003.97
2018-08-10T01:49:30.277Z,1003.95
2018-08-10T01:50:30.270Z,1003.96
2018-08-10T01:51:30.261Z,1003.97
2018-08-10T01:52:30.254Z,1003.96
2018-08-10T01:53:30.250Z,1003.96
2018-08-10T01:54:30.241Z,1003.93
2018-08-10T01:55:30.233Z,1003.98
2018-08-10T01:56:30.226Z,1003.96
2018-08-10T01:57:30.219Z,1003.94
2018-08-10T01:58:30.213Z,1003.95
2018-08-10T01:59:30.205Z,1004.00
2018-08-10T02:00:30.199Z,1004.05
2018-08-10T02:01:30.192Z,1004.02
2018-08-10T02:02:30.185Z,1004.02
2018-08-10T02:03:30.179Z,1004.01
2018-08-10T02:04:30.171Z,1004.02
2018-08-10T02:05:30.164Z,1004.02
2018-08-10T02:06:30.157Z,1004.03
2018-08-10T02:07:30.149Z,1004.02
2018-08-10T02:08:30.143Z,1003.96
2018-08-10T02:09:30.136Z,1003.98
2018-08-10T02:10:30.129Z,1003.96
2018-08-10T02:11:30.121Z,1003.92
2018-08-10T02:12:30.117Z,1003.98
2018-08-10T02:13:30.107Z,1003.94
2018-08-10T02:14:30.101Z,1004.02
2018-08-10T02:15:30.094Z,1003.97
2018-08-10T02:16:30.087Z,1003.96
2018-08-10T02:17:30.083Z,1003.96
2018-08-10T02:18:30.074Z,1003.98
2018-08-10T02:19:30.065Z,1003.99
2018-08-10T02:20:30.059Z,1003.97
2018-08-10T02:21:30.054Z,1003.97
2018-08-10T02:22:30.046Z,1004.04
2018-08-10T02:23:30.038Z,1004.03
2018-08-10T02:24:30.031Z,1004.03
2018-08-10T02:25:30.025Z,1004.05
2018-08-10T02:26:30.018Z,1004.03
2018-08-10T02:27:30.010Z,1004.01
2018-08-10T02:28:30.003Z,1004.00
2018-08-10T02:29:29.996Z,1003.98
2018-08-10T02:30:29.989Z,1004.03
2018-08-10T02:31:29.982Z,1003.99
2018-08-10T02:32:29.977Z,1004.03
2018-08-10T02:33:29.968Z,1004.07
2018-08-10T02:34:29.962Z,1004.07
2018-08-10T02:35:29.954Z,1004.06
2018-08-10T02:36:29.947Z,1004.13
2018-08-10T02:37:29.940Z,1004.15
2018-08-10T02:38:29.933Z,1004.15
2018-08-10T02:39:29.925Z,1004.12
2018-08-10T02:40:29.926Z,1004.15
2018-08-10T02:41:29.912Z,1004.15
2018-08-10T02:42:29.905Z,1004.13
2018-08-10T02:43:29.897Z,1004.14
2018-08-10T02:44:29.890Z,1004.14
2018-08-10T02:45:29.883Z,1004.13
2018-08-10T02:46:29.877Z,1004.13
2018-08-10T02:47:29.868Z,1004.09
2018-08-10T02:48:29.861Z,1004.12
2018-08-10T02:49:29.854Z,1004.11
2018-08-10T02:50:29.848Z,1004.12
2018-08-10T02:51:29.839Z,1004.09
2018-08-10T02:52:29.832Z,1004.12
2018-08-10T02:53:29.829Z,1004.11
2018-08-10T02:54:29.818Z,1004.11
2018-08-10T02:55:29.810Z,1004.11
2018-08-10T02:56:29.803Z,1004.14
2018-08-10T02:57:29.797Z,1004.12
2018-08-10T02:58:29.789Z,1004.16
2018-08-10T02:59:29.781Z,1004.14
2018-08-10T03:00:29.779Z,1004.17
2018-08-10T03:01:29.768Z,1004.14
2018-08-10T03:02:29.761Z,1004.19
2018-08-10T03:03:29.753Z,1004.19
2018-08-10T03:04:29.746Z,1004.18
2018-08-10T03:05:29.739Z,1004.16
2018-08-10T03:06:29.732Z,1004.19
2018-08-10T03:07:29.724Z,1004.18
2018-08-10T03:08:29.717Z,1004.22
2018-08-10T03:09:29.711Z,1004.20
2018-08-10T03:10:29.704Z,1004.18
2018-08-10T03:11:29.695Z,1004.26
2018-08-10T03:12:29.688Z,1004.25
2018-08-10T03:13:29.681Z,1004.23
2018-08-10T03:14:29.674Z,1004.28
2018-08-10T03:15:29.667Z,1004.31
2018-08-10T03:16:29.659Z,1004.29
2018-08-10T03:17:29.653Z,1004.28
2018-08-10T03:18:29.645Z,1004.33
2018-08-10T03:19:29.637Z,1004.33
2018-08-10T03:20:29.630Z,1004.28
2018-08-10T03:21:29.623Z,1004.33
2018-08-10T03:22:29.616Z,1004.35
2018-08-10T03:23:29.608Z,1004.35
2018-08-10T03:24:29.601Z,1004.36
2018-08-10T03:25:29.597Z,1004.39
2018-08-10T03:26:29.589Z,1004.35
2018-08-10T03:27:29.579Z,1004.33
2018-08-10T03:28:29.572Z,1004.31
2018-08-10T03:29:29.567Z,1004.30
2018-08-10T03:30:29.559Z,1004.32
2018-08-10T03:31:29.549Z,1004.32
2018-08-10T03:32:29.542Z,1004.32
2018-08-10T03:33:29.540Z,1004.36
2018-08-10T03:34:29.528Z,1004.34
2018-08-10T03:35:29.521Z,1004.39
2018-08-10T03:36:29.513Z,1004.41
2018-08-10T03:37:29.506Z,1004.39
2018-08-10T03:38:29.500Z,1004.45
2018-08-10T03:39:29.490Z,1004.48
2018-08-10T03:40:29.483Z,1004.45
2018-08-10T03:41:29.476Z,1004.48
2018-08-10T03:42:29.469Z,1004.51
2018-08-10T03:43:29.462Z,1004.48
2018-08-10T03:44:29.453Z,1004.53
2018-08-10T03:45:29.447Z,1004.55
2018-08-10T03:46:29.441Z,1004.53
2018-08-10T03:47:29.432Z,1004.54
2018-08-10T03:48:29.424Z,1004.55
2018-08-10T03:49:29.417Z,1004.57
2018-08-10T03:50:29.410Z,1004.57
2018-08-10T03:51:29.402Z,1004.54
2018-08-10T03:52:29.394Z,1004.59
2018-08-10T03:53:29.388Z,1004.60
2018-08-10T03:54:29.381Z,1004.63
2018-08-10T03:55:29.373Z,1004.59
2018-08-10T03:56:29.366Z,1004.60
2018-08-10T03:57:29.358Z,1004.63
2018-08-10T03:58:29.351Z,1004.62
2018-08-10T03:59:29.343Z,1004.64
2018-08-10T04:00:29.336Z,1004.67
2018-08-10T04:01:29.330Z,1004.66
2018-08-10T04:02:29.321Z,1004.64
2018-08-10T04:03:29.315Z,1004.64
2018-08-10T04:04:29.307Z,1004.66
2018-08-10T04:05:29.301Z,1004.59
2018-08-10T04:06:29.294Z,1004.59
2018-08-10T04:07:29.287Z,1004.61
2018-08-10T04:08:29.278Z,1004.65
2018-08-10T04:09:29.271Z,1004.72
2018-08-10T04:10:29.264Z,1004.68
2018-08-10T04:11:29.256Z,1004.65
2018-08-10T04:12:29.250Z,1004.67
2018-08-10T04:13:29.242Z,1004.64
2018-08-10T04:14:29.235Z,1004.66
2018-08-10T04:15:29.228Z,1004.63
2018-08-10T04:16:29.221Z,1004.62
2018-08-10T04:17:29.214Z,1004.67
2018-08-10T04:18:29.206Z,1004.61
2018-08-10T04:19:29.199Z,1004.63
2018-08-10T04:20:29.191Z,1004.69
2018-08-10T04:21:29.184Z,1004.65
2018-08-10T04:22:29.178Z,1004.66
2018-08-10T04:23:29.170Z,1004.64
2018-08-10T04:24:29.163Z,1004.66
2018-08-10T04:25:29.156Z,1004.67
2018-08-10T04:26:29.149Z,1004.67
2018-08-10T04:27:29.141Z,1004.66
2018-08-10T04:28:29.134Z,1004.75
2018-08-10T04:29:29.167Z,1004.74
2018-08-10T04:30:29.120Z,1004.77
2018-08-10T04:31:29.112Z,1004.78
2018-08-10T04:32:29.105Z,1004.74
2018-08-10T04:33:29.100Z,1004.78
2018-08-10T04:34:29.091Z,1004.83
2018-08-10T04:35:29.083Z,1004.83
2018-08-10T04:36:29.076Z,1004.83
2018-08-10T04:37:29.068Z,1004.86
2018-08-10T04:38:29.084Z,1004.83
2018-08-10T04:39:29.078Z,1004.86
2018-08-10T04:40:29.047Z,1004.90
2018-08-10T04:41:29.040Z,1004.89
2018-08-10T04:42:29.037Z,1004.93
2018-08-10T04:43:29.028Z,1004.93
2018-08-10T04:44:29.021Z,1004.98
2018-08-10T04:45:29.012Z,1004.93
2018-08-10T04:46:29.004Z,1004.98
2018-08-10T04:47:28.997Z,1004.94
2018-08-10T04:48:28.991Z,1005.00
2018-08-10T04:49:28.983Z,1005.01
2018-08-10T04:50:28.976Z,1005.02
2018-08-10T04:51:28.967Z,1005.02
2018-08-10T04:52:28.961Z,1005.05
2018-08-10T04:53:28.954Z,1005.04
2018-08-10T04:54:28.947Z,1005.07
2018-08-10T04:55:29.029Z,1005.08
2018-08-10T04:56:28.932Z,1005.10
2018-08-10T04:57:28.924Z,1005.05
2018-08-10T04:58:28.918Z,1005.16
2018-08-10T04:59:28.916Z,1005.13
2018-08-10T05:00:28.903Z,1005.16
2018-08-10T05:01:28.896Z,1005.21
2018-08-10T05:02:28.889Z,1005.14
2018-08-10T05:03:28.881Z,1005.24
2018-08-10T05:04:28.875Z,1005.17
2018-08-10T05:05:28.868Z,1005.13
2018-08-10T05:06:28.861Z,1005.21
2018-08-10T05:07:28.853Z,1005.19
2018-08-10T05:08:28.846Z,1005.16
2018-08-10T05:09:28.839Z,1005.18
2018-08-10T05:10:28.833Z,1005.19
2018-08-10T05:11:28.825Z,1005.20
2018-08-10T05:12:28.817Z,1005.17
2018-08-10T05:13:28.810Z,1005.26
2018-08-10T05:14:28.805Z,1005.21
2018-08-10T05:15:28.796Z,1005.22
2018-08-10T05:16:28.789Z,1005.23
2018-08-10T05:17:28.785Z,1005.22
2018-08-10T05:18:28.779Z,1005.29
2018-08-10T05:19:28.768Z,1005.35
2018-08-10T05:20:28.760Z,1005.28
2018-08-10T05:21:28.754Z,1005.32
2018-08-10T05:22:28.748Z,1005.31
2018-08-10T05:23:28.741Z,1005.29
2018-08-10T05:24:28.733Z,1005.33
2018-08-10T05:25:28.727Z,1005.31
2018-08-10T05:26:28.721Z,1005.31
2018-08-10T05:27:28.713Z,1005.31
2018-08-10T05:28:28.706Z,1005.35
2018-08-10T05:29:28.700Z,1005.35
2018-08-10T05:30:28.694Z,1005.32
2018-08-10T05:31:28.686Z,1005.37
2018-08-10T05:32:28.679Z,1005.33
2018-08-10T05:33:28.673Z,1005.30
2018-08-10T05:34:28.666Z,1005.41
2018-08-10T05:35:28.661Z,1005.40
2018-08-10T05:36:28.653Z,1005.40
2018-08-10T05:37:28.646Z,1005.38
2018-08-10T05:38:28.639Z,1005.31
2018-08-10T05:39:28.632Z,1005.41
2018-08-10T05:40:28.626Z,1005.40
2018-08-10T05:41:28.619Z,1005.47
2018-08-10T05:42:28.613Z,1005.43
2018-08-10T05:43:28.605Z,1005.41
2018-08-10T05:44:28.599Z,1005.43
2018-08-10T05:45:28.594Z,1005.46
2018-08-10T05:46:28.687Z,1005.48
2018-08-10T05:47:28.580Z,1005.52
2018-08-10T05:48:28.573Z,1005.50
2018-08-10T05:49:28.567Z,1005.48
2018-08-10T05:50:28.566Z,1005.47
2018-08-10T05:51:28.552Z,1005.51
2018-08-10T05:52:28.596Z,1005.48
2018-08-10T05:53:28.541Z,1005.52
2018-08-10T05:54:28.533Z,1005.55
2018-08-10T05:55:28.525Z,1005.51
2018-08-10T05:56:28.519Z,1005.55
2018-08-10T05:57:28.620Z,1005.55
2018-08-10T05:58:28.506Z,1005.51
2018-08-10T05:59:28.500Z,1005.53
2018-08-10T06:00:28.493Z,1005.55
2018-08-10T06:01:28.489Z,1005.62
2018-08-10T06:02:28.480Z,1005.63
2018-08-10T06:03:28.663Z,1005.64
2018-08-10T06:04:28.470Z,1005.63
2018-08-10T06:05:28.461Z,1005.63
2018-08-10T06:06:28.455Z,1005.69
2018-08-10T06:07:28.447Z,1005.70
2018-08-10T06:08:28.441Z,1005.67
2018-08-10T06:09:28.435Z,1005.60
2018-08-10T06:10:28.429Z,1005.66
2018-08-10T06:11:28.420Z,1005.69
2018-08-10T06:12:28.415Z,1005.68
2018-08-10T06:13:28.409Z,1005.69
2018-08-10T06:14:28.402Z,1005.77
2018-08-10T06:15:28.467Z,1005.74
2018-08-10T06:16:28.391Z,1005.81
2018-08-10T06:17:28.384Z,1005.74
2018-08-10T06:18:28.377Z,1005.75
2018-08-10T06:19:28.426Z,1005.77
2018-08-10T06:20:28.365Z,1005.82
2018-08-10T06:21:28.365Z,1005.81
2018-08-10T06:22:28.358Z,1005.85
2018-08-10T06:23:28.345Z,1005.86
2018-08-10T06:24:28.339Z,1005.90
2018-08-10T06:25:28.334Z,1005.88
2018-08-10T06:26:28.330Z,1005.89
2018-08-10T06:27:28.321Z,1005.85
2018-08-10T06:28:28.316Z,1005.90
2018-08-10T06:29:28.310Z,1005.94
2018-08-10T06:30:28.304Z,1005.96
2018-08-10T06:31:28.297Z,1005.94
2018-08-10T06:32:28.290Z,1005.96
2018-08-10T06:33:28.284Z,1005.97
2018-08-10T06:34:28.278Z,1005.93
2018-08-10T06:35:28.272Z,1005.91
2018-08-10T06:36:28.266Z,1005.95
2018-08-10T06:37:28.260Z,1005.96
2018-08-10T06:38:28.255Z,1005.96
2018-08-10T06:39:28.247Z,1005.99
2018-08-10T06:40:28.242Z,1005.98
2018-08-10T06:41:28.236Z,1005.98
2018-08-10T06:42:28.230Z,1005.96
2018-08-10T06:43:28.224Z,1005.97
2018-08-10T06:44:28.218Z,1005.94
2018-08-10T06:45:28.213Z,1005.95
2018-08-10T06:46:28.207Z,1005.91
2018-08-10T06:47:28.202Z,1005.94
2018-08-10T06:48:28.197Z,1005.97
2018-08-10T06:49:28.189Z,1005.95
2018-08-10T06:50:28.184Z,1005.96
2018-08-10T06:51:28.177Z,1006.00
2018-08-10T06:52:28.173Z,1006.08
2018-08-10T06:53:28.167Z,1006.01
2018-08-10T06:54:28.162Z,1005.97
2018-08-10T06:55:28.155Z,1006.06
2018-08-10T06:56:28.150Z,1006.15
2018-08-10T06:57:28.145Z,1006.07
2018-08-10T06:58:28.140Z,1006.11
2018-08-10T06:59:28.133Z,1006.04
2018-08-10T07:00:28.138Z,1006.04
2018-08-10T07:01:28.132Z,1006.10
2018-08-10T07:02:28.118Z,1006.08
2018-08-10T07:03:28.112Z,1006.10
2018-08-10T07:04:28.107Z,1006.16
2018-08-10T07:05:28.147Z,1006.11
2018-08-10T07:06:28.097Z,1006.04
2018-08-10T07:07:28.123Z,1006.07
2018-08-10T07:08:28.087Z,1006.08
2018-08-10T07:09:28.083Z,1006.10
2018-08-10T07:10:28.078Z,1006.16
2018-08-10T07:11:28.073Z,1006.12
2018-08-10T07:12:28.070Z,1006.14
2018-08-10T07:13:28.128Z,1006.14
2018-08-10T07:14:28.060Z,1006.20
2018-08-10T07:15:28.060Z,1006.23
2018-08-10T07:16:28.053Z,1006.22
2018-08-10T07:17:28.047Z,1006.28
2018-08-10T07:18:28.044Z,1006.32
2018-08-10T07:19:28.039Z,1006.37
2018-08-10T07:20:28.037Z,1006.38
2018-08-10T07:21:28.035Z,1006.39
2018-08-10T07:22:28.031Z,1006.35
2018-08-10T07:23:28.028Z,1006.45
2018-08-10T07:24:28.032Z,1006.40
2018-08-10T07:25:28.024Z,1006.43
2018-08-10T07:26:28.023Z,1006.34
2018-08-10T07:27:28.023Z,1006.42
2018-08-10T07:28:28.023Z,1006.38
2018-08-10T07:29:28.022Z,1006.38
2018-08-10T07:30:28.021Z,1006.45
2018-08-10T07:31:28.019Z,1006.42
2018-08-10T07:32:28.019Z,1006.34
2018-08-10T07:33:28.019Z,1006.39
2018-08-10T07:34:28.020Z,1006.41
2018-08-10T07:35:28.019Z,1006.46
2018-08-10T07:36:28.021Z,1006.44
2018-08-10T07:37:28.024Z,1006.51
2018-08-10T07:38:28.026Z,1006.40
2018-08-10T07:39:28.025Z,1006.32
2018-08-10T07:40:28.025Z,1006.40
2018-08-10T07:41:28.027Z,1006.38
2018-08-10T07:42:28.030Z,1006.46
2018-08-10T07:43:28.030Z,1006.49
2018-08-10T07:44:28.032Z,1006.50
2018-08-10T07:45:28.035Z,1006.44
2018-08-10T07:46:28.066Z,1006.46
2018-08-10T07:47:28.038Z,1006.44
2018-08-10T07:48:28.045Z,1006.46
2018-08-10T07:49:28.044Z,1006.49
2018-08-10T07:50:28.047Z,1006.51
2018-08-10T07:51:28.049Z,1006.48
2018-08-10T07:52:28.052Z,1006.47
2018-08-10T07:53:28.055Z,1006.50
2018-08-10T07:54:28.058Z,1006.56
2018-08-10T07:55:28.062Z,1006.55
2018-08-10T07:56:28.064Z,1006.58
2018-08-10T07:57:28.068Z,1006.56
2018-08-10T07:58:28.071Z,1006.60
2018-08-10T07:59:28.074Z,1006.67
2018-08-10T08:00:28.079Z,1006.66
2018-08-10T08:01:28.083Z,1006.61
2018-08-10T08:02:28.088Z,1006.68
2018-08-10T08:03:28.092Z,1006.57
2018-08-10T08:04:28.098Z,1006.68
2018-08-10T08:05:28.099Z,1006.69
2018-08-10T08:06:28.102Z,1006.58
2018-08-10T08:07:28.104Z,1006.60
2018-08-10T08:08:28.107Z,1006.63
2018-08-10T08:09:28.109Z,1006.68
2018-08-10T08:10:28.115Z,1006.65
2018-08-10T08:11:28.112Z,1006.64
2018-08-10T08:12:28.114Z,1006.70
2018-08-10T08:13:28.116Z,1006.63
2018-08-10T08:14:28.120Z,1006.70
2018-08-10T08:15:28.121Z,1006.60
2018-08-10T08:16:28.123Z,1006.74
2018-08-10T08:17:28.126Z,1006.67
2018-08-10T08:18:28.130Z,1006.69
2018-08-10T08:19:28.174Z,1006.66
2018-08-10T08:20:28.135Z,1006.63
2018-08-10T08:21:28.138Z,1006.73
2018-08-10T08:22:28.139Z,1006.78
2018-08-10T08:23:28.141Z,1006.74
2018-08-10T08:24:28.143Z,1006.78
2018-08-10T08:25:28.144Z,1006.71
2018-08-10T08:26:28.146Z,1006.70
2018-08-10T08:27:28.147Z,1006.68
2018-08-10T08:28:28.149Z,1006.68
2018-08-10T08:29:28.150Z,1006.65
2018-08-10T08:30:28.153Z,1006.75
2018-08-10T08:31:28.154Z,1006.76
2018-08-10T08:32:28.157Z,1006.72
2018-08-10T08:33:28.195Z,1006.72
2018-08-10T08:34:28.161Z,1006.73
2018-08-10T08:35:28.163Z,1006.73
2018-08-10T08:36:28.166Z,1006.81
2018-08-10T08:37:28.169Z,1006.78
2018-08-10T08:38:28.271Z,1006.74
2018-08-10T08:39:28.179Z,1006.69
2018-08-10T08:40:28.182Z,1006.68
2018-08-10T08:41:28.187Z,1006.70
2018-08-10T08:42:28.192Z,1006.71
2018-08-10T08:43:28.198Z,1006.71
2018-08-10T08:44:28.203Z,1006.74
2018-08-10T08:45:28.311Z,1006.85
2018-08-10T08:46:28.361Z,1006.74
2018-08-10T08:47:28.223Z,1006.73
2018-08-10T08:48:28.229Z,1006.78
2018-08-10T08:49:28.237Z,1006.72
2018-08-10T08:50:28.244Z,1006.79
2018-08-10T08:51:28.260Z,1006.76
2018-08-10T08:52:28.264Z,1006.76
2018-08-10T08:53:28.266Z,1006.78
2018-08-10T08:54:28.273Z,1006.74
2018-08-10T08:55:28.281Z,1006.69
2018-08-10T08:56:28.288Z,1006.79
2018-08-10T08:57:28.297Z,1006.75
2018-08-10T08:58:28.305Z,1006.80
2018-08-10T08:59:28.312Z,1006.80
2018-08-10T09:00:28.319Z,1006.83
2018-08-10T09:01:28.328Z,1006.82
2018-08-10T09:02:28.336Z,1006.81
2018-08-10T09:03:28.343Z,1006.81
2018-08-10T09:04:28.352Z,1006.85
2018-08-10T09:05:28.360Z,1006.86
2018-08-10T09:06:28.368Z,1006.87
2018-08-10T09:07:28.572Z,1006.88
2018-08-10T09:08:28.383Z,1006.85
2018-08-10T09:09:28.390Z,1006.82
2018-08-10T09:10:28.397Z,1006.84
2018-08-10T09:11:28.402Z,1006.80
2018-08-10T09:12:28.407Z,1006.84
2018-08-10T09:13:28.413Z,1006.87
2018-08-10T09:14:28.479Z,1006.87
2018-08-10T09:15:28.421Z,1006.85
2018-08-10T09:16:28.427Z,1006.77
2018-08-10T09:17:28.457Z,1006.82
2018-08-10T09:18:28.438Z,1006.93
2018-08-10T09:19:28.445Z,1006.84
2018-08-10T09:20:28.450Z,1006.77
2018-08-10T09:21:28.457Z,1006.85
2018-08-10T09:22:28.465Z,1006.86
2018-08-10T09:23:28.494Z,1006.76
2018-08-10T09:24:28.479Z,1006.82
2018-08-10T09:25:28.485Z,1006.77
2018-08-10T09:26:28.571Z,1006.86
2018-08-10T09:27:28.500Z,1006.81
2018-08-10T09:28:28.511Z,1006.77
2018-08-10T09:29:28.517Z,1006.83
2018-08-10T09:30:28.524Z,1006.88
2018-08-10T09:31:28.536Z,1007.00
2018-08-10T09:32:28.542Z,1006.98
2018-08-10T09:33:28.550Z,1006.93
2018-08-10T09:34:28.638Z,1006.89
2018-08-10T09:35:28.566Z,1007.01
2018-08-10T09:36:28.577Z,1007.01
2018-08-10T09:37:28.588Z,1006.92
2018-08-10T09:38:28.645Z,1006.98
2018-08-10T09:39:28.602Z,1006.99
2018-08-10T09:40:28.612Z,1006.96
2018-08-10T09:41:28.621Z,1006.81
2018-08-10T09:42:28.629Z,1006.92
2018-08-10T09:43:28.636Z,1006.90
2018-08-10T09:44:28.644Z,1006.93
2018-08-10T09:45:28.731Z,1006.84
2018-08-10T09:46:28.660Z,1006.85
2018-08-10T09:47:28.666Z,1006.92
2018-08-10T09:48:28.678Z,1006.93
2018-08-10T09:50:28.691Z,1006.90
2018-08-10T09:51:28.699Z,1006.99
2018-08-10T09:52:28.708Z,1006.95
2018-08-10T09:53:28.717Z,1006.97
2018-08-10T09:54:28.725Z,1006.87
2018-08-10T09:55:28.734Z,1006.95
2018-08-10T09:56:28.743Z,1006.88
2018-08-10T09:57:28.751Z,1006.85
2018-08-10T09:58:28.760Z,1006.84
2018-08-10T09:59:28.767Z,1006.96
2018-08-10T10:00:28.776Z,1006.90
2018-08-10T10:01:28.783Z,1006.76
2018-08-10T10:02:28.791Z,1006.92
2018-08-10T10:03:28.799Z,1006.93
2018-08-10T10:04:28.809Z,1006.89
2018-08-10T10:05:28.816Z,1006.75
2018-08-10T10:06:28.825Z,1006.80
2018-08-10T10:07:28.831Z,1006.88
2018-08-10T10:08:28.840Z,1006.89
2018-08-10T10:09:28.845Z,1006.97
2018-08-10T10:10:28.852Z,1006.89
2018-08-10T10:11:28.858Z,1006.87
2018-08-10T10:12:28.865Z,1006.97
2018-08-10T10:13:28.872Z,1006.99
2018-08-10T10:14:28.878Z,1006.92
2018-08-10T10:15:28.884Z,1007.02
2018-08-10T10:16:28.890Z,1006.98
2018-08-10T10:17:29.025Z,1006.86
2018-08-10T10:18:28.904Z,1006.86
2018-08-10T10:19:28.908Z,1006.93
2018-08-10T10:20:28.915Z,1006.84
2018-08-10T10:21:28.923Z,1006.90
2018-08-10T10:22:28.930Z,1006.88
2018-08-10T10:23:28.936Z,1006.89
2018-08-10T10:24:28.945Z,1006.89
2018-08-10T10:25:28.954Z,1006.83
2018-08-10T10:26:28.961Z,1006.80
2018-08-10T10:27:28.968Z,1006.89
2018-08-10T10:28:28.975Z,1006.87
2018-08-10T10:29:28.981Z,1006.93
2018-08-10T10:30:28.988Z,1007.04
2018-08-10T10:31:28.993Z,1006.97
2018-08-10T10:32:29.001Z,1007.03
2018-08-10T10:33:29.006Z,1006.93
2018-08-10T10:34:29.013Z,1006.93
2018-08-10T10:35:29.021Z,1006.92
2018-08-10T10:36:29.026Z,1006.90
2018-08-10T10:37:29.035Z,1007.00
2018-08-10T10:38:29.044Z,1006.90
2018-08-10T10:39:29.049Z,1006.95
2018-08-10T10:40:29.057Z,1006.94
2018-08-10T10:41:29.103Z,1006.94
2018-08-10T10:42:29.072Z,1006.95
2018-08-10T10:43:29.080Z,1007.01
2018-08-10T10:44:29.084Z,1006.85
2018-08-10T10:45:29.091Z,1006.96
2018-08-10T10:46:29.098Z,1006.96
2018-08-10T10:47:29.208Z,1006.86
2018-08-10T10:48:29.111Z,1006.92
2018-08-10T10:49:29.122Z,1006.97
2018-08-10T10:50:29.127Z,1006.92
2018-08-10T10:51:29.133Z,1006.97
2018-08-10T10:52:29.140Z,1007.05
2018-08-10T10:53:29.149Z,1006.96
2018-08-10T10:54:29.157Z,1007.02
2018-08-10T10:55:29.271Z,1006.99
2018-08-10T10:56:29.230Z,1006.94
2018-08-10T10:57:29.182Z,1006.90
2018-08-10T10:58:29.196Z,1006.94
2018-08-10T10:59:29.203Z,1006.94
2018-08-10T11:00:29.211Z,1006.82
2018-08-10T11:01:29.258Z,1006.77
2018-08-10T11:02:29.222Z,1006.85
2018-08-10T11:03:29.227Z,1006.86
2018-08-10T11:04:29.234Z,1006.86
2018-08-10T11:05:29.240Z,1006.82
2018-08-10T11:06:29.343Z,1006.80
2018-08-10T11:07:29.257Z,1006.78
2018-08-10T11:08:29.254Z,1006.73
2018-08-10T11:09:29.258Z,1006.83
2018-08-10T11:10:29.261Z,1006.80
2018-08-10T11:11:29.263Z,1006.80
2018-08-10T11:12:29.267Z,1006.76
2018-08-10T11:13:29.269Z,1006.78
2018-08-10T11:14:29.270Z,1006.82
2018-08-10T11:15:29.572Z,1006.89
2018-08-10T11:16:29.274Z,1006.88
2018-08-10T11:17:29.277Z,1006.78
2018-08-10T11:18:29.282Z,1006.79
2018-08-10T11:19:29.283Z,1006.80
2018-08-10T11:20:29.387Z,1006.78
2018-08-10T11:21:29.292Z,1006.73
2018-08-10T11:22:29.297Z,1006.74
2018-08-10T11:23:29.301Z,1006.74
2018-08-10T11:24:29.304Z,1006.81
2018-08-10T11:25:29.439Z,1006.76
2018-08-10T11:26:29.311Z,1006.72
2018-08-10T11:27:29.315Z,1006.71
2018-08-10T11:28:29.321Z,1006.71
2018-08-10T11:29:29.322Z,1006.73
2018-08-10T11:30:29.328Z,1006.75
2018-08-10T11:31:29.328Z,1006.74
2018-08-10T11:32:29.334Z,1006.81
2018-08-10T11:33:29.333Z,1006.77
2018-08-10T11:34:29.335Z,1006.76
2018-08-10T11:35:29.337Z,1006.78
2018-08-10T11:36:29.339Z,1006.77
2018-08-10T11:37:29.341Z,1006.75
2018-08-10T11:38:29.344Z,1006.79
2018-08-10T11:39:29.349Z,1006.72
2018-08-10T11:40:29.349Z,1006.78
2018-08-10T11:41:29.403Z,1006.69
2018-08-10T11:42:29.355Z,1006.78
2018-08-10T11:43:29.357Z,1006.71
2018-08-10T11:44:29.360Z,1006.77
2018-08-10T11:45:29.364Z,1006.74
2018-08-10T11:46:29.365Z,1006.72
2018-08-10T11:47:29.369Z,1006.69
2018-08-10T11:48:29.367Z,1006.70
2018-08-10T11:49:29.371Z,1006.72
2018-08-10T11:50:29.370Z,1006.69
2018-08-10T11:51:29.374Z,1006.71
2018-08-10T11:52:29.450Z,1006.65
2018-08-10T11:53:29.372Z,1006.66
2018-08-10T11:54:29.372Z,1006.70
2018-08-10T11:55:29.371Z,1006.75
2018-08-10T11:56:29.373Z,1006.69
2018-08-10T11:57:29.429Z,1006.69
2018-08-10T11:58:29.373Z,1006.63
2018-08-10T11:59:29.369Z,1006.59
2018-08-10T12:00:29.368Z,1006.68
2018-08-10T12:01:29.369Z,1006.66
2018-08-10T12:02:29.369Z,1006.63
2018-08-10T12:03:29.367Z,1006.67
2018-08-10T12:04:29.366Z,1006.62
2018-08-10T12:05:29.366Z,1006.64
2018-08-10T12:06:29.372Z,1006.60